sensor_id;sensor_type;location;lat;lon;timestamp;P1;durP1;ratioP1;P2;durP2;ratioP2
11414;SDS011;5763;42.714;23.244;2024-01-15T00:00:53;4.90;;;3.30;;
11414;SDS011;5763;42.714;23.244;2024-01-15T00:03:20;4.35;;;3.90;;
11414;SDS011;5763;42.714;23.244;2024-01-15T00:05:47;5.32;;;2.47;;
11414;SDS011;5763;42.714;23.244;2024-01-15T00:08:14;4.93;;;2.30;;
11414;SDS011;5763;42.714;23.244;2024-01-15T00:10:41;3.30;;;2.75;;
11414;SDS011;5763;42.714;23.244;2024-01-15T00:13:11;5.53;;;4.35;;
11414;SDS011;5763;42.714;23.244;2024-01-15T00:15:38;2.50;;;2.15;;
11414;SDS011;5763;42.714;23.244;2024-01-15T00:18:07;3.95;;;2.42;;
11414;SDS011;5763;42.714;23.244;2024-01-15T00:20:34;3.83;;;3.53;;
11414;SDS011;5763;42.714;23.244;2024-01-15T00:23:01;3.72;;;3.10;;
11414;SDS011;5763;42.714;23.244;2024-01-15T00:25:28;2.42;;;2.22;;
11414;SDS011;5763;42.714;23.244;2024-01-15T00:27:56;5.65;;;2.65;;
11414;SDS011;5763;42.714;23.244;2024-01-15T00:30:23;2.97;;;2.17;;
11414;SDS011;5763;42.714;23.244;2024-01-15T00:32:50;2.95;;;2.17;;
11414;SDS011;5763;42.714;23.244;2024-01-15T00:35:19;4.32;;;3.58;;
11414;SDS011;5763;42.714;23.244;2024-01-15T00:37:46;2.50;;;2.30;;
11414;SDS011;5763;42.714;23.244;2024-01-15T00:40:14;2.58;;;1.88;;
11414;SDS011;5763;42.714;23.244;2024-01-15T00:42:41;4.63;;;3.15;;
11414;SDS011;5763;42.714;23.244;2024-01-15T00:45:08;4.32;;;2.05;;
11414;SDS011;5763;42.714;23.244;2024-01-15T00:47:36;4.95;;;2.58;;
11414;SDS011;5763;42.714;23.244;2024-01-15T00:50:07;4.88;;;2.67;;
11414;SDS011;5763;42.714;23.244;2024-01-15T00:52:36;6.60;;;3.15;;
11414;SDS011;5763;42.714;23.244;2024-01-15T00:55:04;2.67;;;2.22;;
11414;SDS011;5763;42.714;23.244;2024-01-15T00:57:32;3.60;;;3.30;;
11414;SDS011;5763;42.714;23.244;2024-01-15T00:59:59;3.13;;;2.75;;
11414;SDS011;5763;42.714;23.244;2024-01-15T01:02:27;4.68;;;3.20;;
11414;SDS011;5763;42.714;23.244;2024-01-15T01:04:54;2.95;;;2.72;;
11414;SDS011;5763;42.714;23.244;2024-01-15T01:07:21;4.93;;;2.10;;
11414;SDS011;5763;42.714;23.244;2024-01-15T01:09:49;3.72;;;2.38;;
11414;SDS011;5763;42.714;23.244;2024-01-15T01:12:17;4.55;;;2.95;;
11414;SDS011;5763;42.714;23.244;2024-01-15T01:14:44;4.63;;;3.42;;
11414;SDS011;5763;42.714;23.244;2024-01-15T01:17:11;4.88;;;4.38;;
11414;SDS011;5763;42.714;23.244;2024-01-15T01:19:38;3.58;;;2.20;;
11414;SDS011;5763;42.714;23.244;2024-01-15T01:22:05;2.05;;;1.95;;
11414;SDS011;5763;42.714;23.244;2024-01-15T01:24:33;5.25;;;3.60;;
11414;SDS011;5763;42.714;23.244;2024-01-15T01:27:01;5.53;;;4.53;;
11414;SDS011;5763;42.714;23.244;2024-01-15T01:29:29;4.93;;;3.65;;
11414;SDS011;5763;42.714;23.244;2024-01-15T01:31:56;8.02;;;4.32;;
11414;SDS011;5763;42.714;23.244;2024-01-15T01:34:23;3.65;;;3.15;;
11414;SDS011;5763;42.714;23.244;2024-01-15T01:36:50;6.65;;;4.22;;
11414;SDS011;5763;42.714;23.244;2024-01-15T01:39:17;2.65;;;2.17;;
11414;SDS011;5763;42.714;23.244;2024-01-15T01:41:44;3.03;;;2.22;;
11414;SDS011;5763;42.714;23.244;2024-01-15T01:44:13;6.93;;;3.15;;
11414;SDS011;5763;42.714;23.244;2024-01-15T01:46:41;4.88;;;3.03;;
11414;SDS011;5763;42.714;23.244;2024-01-15T01:49:08;6.65;;;4.43;;
11414;SDS011;5763;42.714;23.244;2024-01-15T01:51:36;2.95;;;2.45;;
11414;SDS011;5763;42.714;23.244;2024-01-15T01:54:04;3.88;;;3.60;;
11414;SDS011;5763;42.714;23.244;2024-01-15T01:56:34;3.83;;;3.15;;
11414;SDS011;5763;42.714;23.244;2024-01-15T01:59:02;3.28;;;3.08;;
11414;SDS011;5763;42.714;23.244;2024-01-15T02:01:33;3.47;;;2.97;;
11414;SDS011;5763;42.714;23.244;2024-01-15T02:04:00;4.78;;;2.72;;
11414;SDS011;5763;42.714;23.244;2024-01-15T02:06:28;8.05;;;5.28;;
11414;SDS011;5763;42.714;23.244;2024-01-15T02:08:58;2.13;;;2.03;;
11414;SDS011;5763;42.714;23.244;2024-01-15T02:11:26;7.25;;;3.28;;
11414;SDS011;5763;42.714;23.244;2024-01-15T02:13:53;2.80;;;2.60;;
11414;SDS011;5763;42.714;23.244;2024-01-15T02:16:22;4.55;;;2.45;;
11414;SDS011;5763;42.714;23.244;2024-01-15T02:18:51;4.00;;;3.60;;
11414;SDS011;5763;42.714;23.244;2024-01-15T02:21:18;2.60;;;2.22;;
11414;SDS011;5763;42.714;23.244;2024-01-15T02:23:47;4.55;;;3.28;;
11414;SDS011;5763;42.714;23.244;2024-01-15T02:26:14;2.88;;;2.13;;
11414;SDS011;5763;42.714;23.244;2024-01-15T02:28:44;3.90;;;2.80;;
11414;SDS011;5763;42.714;23.244;2024-01-15T02:31:12;3.78;;;2.72;;
11414;SDS011;5763;42.714;23.244;2024-01-15T02:33:39;4.95;;;3.55;;
11414;SDS011;5763;42.714;23.244;2024-01-15T02:36:07;2.33;;;2.13;;
11414;SDS011;5763;42.714;23.244;2024-01-15T02:38:35;1.88;;;1.60;;
11414;SDS011;5763;42.714;23.244;2024-01-15T02:41:04;6.18;;;4.57;;
11414;SDS011;5763;42.714;23.244;2024-01-15T02:43:31;3.72;;;2.72;;
11414;SDS011;5763;42.714;23.244;2024-01-15T02:45:58;4.00;;;3.47;;
11414;SDS011;5763;42.714;23.244;2024-01-15T02:48:25;2.10;;;2.00;;
11414;SDS011;5763;42.714;23.244;2024-01-15T02:50:52;6.97;;;3.38;;
11414;SDS011;5763;42.714;23.244;2024-01-15T02:53:19;6.75;;;1.73;;
11414;SDS011;5763;42.714;23.244;2024-01-15T02:55:47;3.25;;;2.80;;
11414;SDS011;5763;42.714;23.244;2024-01-15T02:58:15;5.57;;;2.45;;
11414;SDS011;5763;42.714;23.244;2024-01-15T03:00:43;5.60;;;2.80;;
11414;SDS011;5763;42.714;23.244;2024-01-15T03:03:11;5.57;;;2.70;;
11414;SDS011;5763;42.714;23.244;2024-01-15T03:05:38;4.20;;;3.47;;
11414;SDS011;5763;42.714;23.244;2024-01-15T03:08:05;2.17;;;1.98;;
11414;SDS011;5763;42.714;23.244;2024-01-15T03:10:33;2.42;;;2.15;;
11414;SDS011;5763;42.714;23.244;2024-01-15T03:13:00;5.35;;;3.42;;
11414;SDS011;5763;42.714;23.244;2024-01-15T03:15:28;4.50;;;4.10;;
11414;SDS011;5763;42.714;23.244;2024-01-15T03:17:56;3.42;;;2.60;;
11414;SDS011;5763;42.714;23.244;2024-01-15T03:20:23;3.05;;;2.25;;
11414;SDS011;5763;42.714;23.244;2024-01-15T03:22:51;2.25;;;2.05;;
11414;SDS011;5763;42.714;23.244;2024-01-15T03:25:18;2.35;;;2.20;;
11414;SDS011;5763;42.714;23.244;2024-01-15T03:27:45;6.07;;;2.67;;
11414;SDS011;5763;42.714;23.244;2024-01-15T03:30:13;2.75;;;2.55;;
11414;SDS011;5763;42.714;23.244;2024-01-15T03:32:44;2.78;;;2.58;;
11414;SDS011;5763;42.714;23.244;2024-01-15T03:35:12;2.80;;;2.17;;
11414;SDS011;5763;42.714;23.244;2024-01-15T03:37:39;2.38;;;2.20;;
11414;SDS011;5763;42.714;23.244;2024-01-15T03:40:07;2.50;;;2.33;;
11414;SDS011;5763;42.714;23.244;2024-01-15T03:42:37;6.18;;;4.07;;
11414;SDS011;5763;42.714;23.244;2024-01-15T03:45:04;3.13;;;2.67;;
11414;SDS011;5763;42.714;23.244;2024-01-15T03:47:32;3.50;;;2.85;;
11414;SDS011;5763;42.714;23.244;2024-01-15T03:50:01;5.05;;;4.07;;
11414;SDS011;5763;42.714;23.244;2024-01-15T03:52:28;4.28;;;3.88;;
11414;SDS011;5763;42.714;23.244;2024-01-15T03:54:55;3.17;;;2.90;;
11414;SDS011;5763;42.714;23.244;2024-01-15T03:57:22;8.30;;;3.78;;
11414;SDS011;5763;42.714;23.244;2024-01-15T03:59:50;4.63;;;3.35;;
11414;SDS011;5763;42.714;23.244;2024-01-15T04:02:17;4.53;;;4.13;;
11414;SDS011;5763;42.714;23.244;2024-01-15T04:04:44;2.88;;;2.35;;
11414;SDS011;5763;42.714;23.244;2024-01-15T04:07:13;5.20;;;3.88;;
11414;SDS011;5763;42.714;23.244;2024-01-15T04:09:40;7.40;;;4.82;;
11414;SDS011;5763;42.714;23.244;2024-01-15T04:12:07;4.28;;;3.78;;
11414;SDS011;5763;42.714;23.244;2024-01-15T04:14:35;6.45;;;5.80;;
11414;SDS011;5763;42.714;23.244;2024-01-15T04:17:02;6.13;;;4.25;;
11414;SDS011;5763;42.714;23.244;2024-01-15T04:19:30;13.00;;;6.22;;
11414;SDS011;5763;42.714;23.244;2024-01-15T04:21:57;5.40;;;4.90;;
11414;SDS011;5763;42.714;23.244;2024-01-15T04:24:26;7.93;;;6.20;;
11414;SDS011;5763;42.714;23.244;2024-01-15T04:26:53;7.45;;;4.18;;
11414;SDS011;5763;42.714;23.244;2024-01-15T04:29:20;11.07;;;9.15;;
11414;SDS011;5763;42.714;23.244;2024-01-15T04:31:48;10.18;;;7.45;;
11414;SDS011;5763;42.714;23.244;2024-01-15T04:34:15;6.72;;;6.03;;
11414;SDS011;5763;42.714;23.244;2024-01-15T04:36:42;9.50;;;6.57;;
11414;SDS011;5763;42.714;23.244;2024-01-15T04:39:10;9.65;;;7.55;;
11414;SDS011;5763;42.714;23.244;2024-01-15T04:41:39;13.35;;;6.78;;
11414;SDS011;5763;42.714;23.244;2024-01-15T04:44:06;5.22;;;4.80;;
11414;SDS011;5763;42.714;23.244;2024-01-15T04:46:34;10.63;;;5.32;;
11414;SDS011;5763;42.714;23.244;2024-01-15T04:49:01;11.40;;;5.22;;
11414;SDS011;5763;42.714;23.244;2024-01-15T04:51:28;3.72;;;3.42;;
11414;SDS011;5763;42.714;23.244;2024-01-15T04:53:55;5.03;;;4.28;;
11414;SDS011;5763;42.714;23.244;2024-01-15T04:56:23;9.95;;;6.75;;
11414;SDS011;5763;42.714;23.244;2024-01-15T04:58:51;3.55;;;3.22;;
11414;SDS011;5763;42.714;23.244;2024-01-15T05:01:18;2.38;;;2.22;;
11414;SDS011;5763;42.714;23.244;2024-01-15T05:03:46;9.98;;;4.75;;
11414;SDS011;5763;42.714;23.244;2024-01-15T05:06:14;8.88;;;3.70;;
11414;SDS011;5763;42.714;23.244;2024-01-15T05:08:42;10.45;;;3.90;;
11414;SDS011;5763;42.714;23.244;2024-01-15T05:11:09;6.10;;;4.93;;
11414;SDS011;5763;42.714;23.244;2024-01-15T05:13:36;6.90;;;4.07;;
11414;SDS011;5763;42.714;23.244;2024-01-15T05:16:05;8.10;;;4.35;;
11414;SDS011;5763;42.714;23.244;2024-01-15T05:18:32;5.18;;;3.15;;
11414;SDS011;5763;42.714;23.244;2024-01-15T05:21:00;7.82;;;4.10;;
11414;SDS011;5763;42.714;23.244;2024-01-15T05:23:27;4.13;;;3.80;;
11414;SDS011;5763;42.714;23.244;2024-01-15T05:25:55;8.15;;;6.28;;
11414;SDS011;5763;42.714;23.244;2024-01-15T05:28:22;5.13;;;3.78;;
11414;SDS011;5763;42.714;23.244;2024-01-15T05:30:49;6.18;;;5.05;;
11414;SDS011;5763;42.714;23.244;2024-01-15T05:33:19;5.97;;;3.70;;
11414;SDS011;5763;42.714;23.244;2024-01-15T05:35:51;10.60;;;3.40;;
11414;SDS011;5763;42.714;23.244;2024-01-15T05:38:22;7.25;;;5.40;;
11414;SDS011;5763;42.714;23.244;2024-01-15T05:40:49;6.28;;;3.72;;
11414;SDS011;5763;42.714;23.244;2024-01-15T05:43:17;4.35;;;3.45;;
11414;SDS011;5763;42.714;23.244;2024-01-15T05:45:44;13.68;;;4.00;;
11414;SDS011;5763;42.714;23.244;2024-01-15T05:48:12;6.85;;;4.68;;
11414;SDS011;5763;42.714;23.244;2024-01-15T05:50:41;4.75;;;4.28;;
11414;SDS011;5763;42.714;23.244;2024-01-15T05:53:08;5.93;;;4.00;;
11414;SDS011;5763;42.714;23.244;2024-01-15T05:55:36;6.45;;;4.15;;
11414;SDS011;5763;42.714;23.244;2024-01-15T05:58:03;8.85;;;3.95;;
11414;SDS011;5763;42.714;23.244;2024-01-15T06:00:31;3.80;;;3.25;;
11414;SDS011;5763;42.714;23.244;2024-01-15T06:03:00;4.32;;;3.85;;
11414;SDS011;5763;42.714;23.244;2024-01-15T06:05:27;4.68;;;2.67;;
11414;SDS011;5763;42.714;23.244;2024-01-15T06:07:56;6.93;;;3.25;;
11414;SDS011;5763;42.714;23.244;2024-01-15T06:10:23;3.58;;;3.38;;
11414;SDS011;5763;42.714;23.244;2024-01-15T06:12:51;5.72;;;3.30;;
11414;SDS011;5763;42.714;23.244;2024-01-15T06:15:18;5.70;;;3.40;;
11414;SDS011;5763;42.714;23.244;2024-01-15T06:17:45;3.38;;;3.10;;
11414;SDS011;5763;42.714;23.244;2024-01-15T06:20:12;5.50;;;4.18;;
11414;SDS011;5763;42.714;23.244;2024-01-15T06:22:40;4.20;;;3.80;;
11414;SDS011;5763;42.714;23.244;2024-01-15T06:25:09;3.38;;;3.15;;
11414;SDS011;5763;42.714;23.244;2024-01-15T06:27:37;7.07;;;4.28;;
11414;SDS011;5763;42.714;23.244;2024-01-15T06:30:04;6.43;;;3.28;;
11414;SDS011;5763;42.714;23.244;2024-01-15T06:32:32;4.57;;;3.95;;
11414;SDS011;5763;42.714;23.244;2024-01-15T06:35:00;6.95;;;3.55;;
11414;SDS011;5763;42.714;23.244;2024-01-15T06:37:27;4.00;;;2.78;;
11414;SDS011;5763;42.714;23.244;2024-01-15T06:39:54;3.80;;;3.33;;
11414;SDS011;5763;42.714;23.244;2024-01-15T06:42:24;4.25;;;3.80;;
11414;SDS011;5763;42.714;23.244;2024-01-15T06:44:52;3.20;;;2.97;;
11414;SDS011;5763;42.714;23.244;2024-01-15T06:47:19;3.72;;;2.78;;
11414;SDS011;5763;42.714;23.244;2024-01-15T06:49:46;10.52;;;5.85;;
11414;SDS011;5763;42.714;23.244;2024-01-15T06:52:15;5.85;;;4.93;;
11414;SDS011;5763;42.714;23.244;2024-01-15T06:54:42;8.70;;;4.57;;
11414;SDS011;5763;42.714;23.244;2024-01-15T06:57:10;7.80;;;4.47;;
11414;SDS011;5763;42.714;23.244;2024-01-15T06:59:38;10.05;;;6.13;;
11414;SDS011;5763;42.714;23.244;2024-01-15T07:02:06;6.80;;;5.03;;
11414;SDS011;5763;42.714;23.244;2024-01-15T07:04:33;7.93;;;5.00;;
11414;SDS011;5763;42.714;23.244;2024-01-15T07:07:00;6.88;;;5.55;;
11414;SDS011;5763;42.714;23.244;2024-01-15T07:09:28;7.97;;;5.70;;
11414;SDS011;5763;42.714;23.244;2024-01-15T07:11:55;8.13;;;5.32;;
11414;SDS011;5763;42.714;23.244;2024-01-15T07:14:23;9.15;;;5.68;;
11414;SDS011;5763;42.714;23.244;2024-01-15T07:16:53;7.22;;;6.35;;
11414;SDS011;5763;42.714;23.244;2024-01-15T07:19:20;7.18;;;4.78;;
11414;SDS011;5763;42.714;23.244;2024-01-15T07:21:47;10.13;;;6.93;;
11414;SDS011;5763;42.714;23.244;2024-01-15T07:24:14;10.38;;;5.32;;
11414;SDS011;5763;42.714;23.244;2024-01-15T07:26:41;6.43;;;3.55;;
11414;SDS011;5763;42.714;23.244;2024-01-15T07:29:09;7.22;;;6.25;;
11414;SDS011;5763;42.714;23.244;2024-01-15T07:31:37;7.38;;;4.93;;
11414;SDS011;5763;42.714;23.244;2024-01-15T07:34:06;6.00;;;4.47;;
11414;SDS011;5763;42.714;23.244;2024-01-15T07:36:34;11.80;;;3.70;;
11414;SDS011;5763;42.714;23.244;2024-01-15T07:39:01;5.63;;;4.10;;
11414;SDS011;5763;42.714;23.244;2024-01-15T07:41:29;3.40;;;3.10;;
11414;SDS011;5763;42.714;23.244;2024-01-15T07:43:57;7.13;;;4.45;;
11414;SDS011;5763;42.714;23.244;2024-01-15T07:46:24;5.43;;;3.38;;
11414;SDS011;5763;42.714;23.244;2024-01-15T07:48:51;5.13;;;4.63;;
11414;SDS011;5763;42.714;23.244;2024-01-15T07:51:23;9.80;;;5.70;;
11414;SDS011;5763;42.714;23.244;2024-01-15T07:53:50;7.55;;;3.65;;
11414;SDS011;5763;42.714;23.244;2024-01-15T07:56:18;8.82;;;4.75;;
11414;SDS011;5763;42.714;23.244;2024-01-15T07:58:46;7.25;;;4.53;;
11414;SDS011;5763;42.714;23.244;2024-01-15T08:01:14;9.02;;;6.95;;
11414;SDS011;5763;42.714;23.244;2024-01-15T08:03:41;6.22;;;5.68;;
11414;SDS011;5763;42.714;23.244;2024-01-15T08:06:08;10.52;;;7.53;;
11414;SDS011;5763;42.714;23.244;2024-01-15T08:08:37;7.30;;;5.95;;
11414;SDS011;5763;42.714;23.244;2024-01-15T08:11:05;7.78;;;6.22;;
11414;SDS011;5763;42.714;23.244;2024-01-15T08:13:32;7.13;;;4.57;;
11414;SDS011;5763;42.714;23.244;2024-01-15T08:15:59;9.27;;;5.60;;
11414;SDS011;5763;42.714;23.244;2024-01-15T08:18:27;13.40;;;7.10;;
11414;SDS011;5763;42.714;23.244;2024-01-15T08:20:54;6.60;;;5.10;;
11414;SDS011;5763;42.714;23.244;2024-01-15T08:23:21;8.35;;;6.13;;
11414;SDS011;5763;42.714;23.244;2024-01-15T08:25:51;6.20;;;5.22;;
11414;SDS011;5763;42.714;23.244;2024-01-15T08:28:18;8.95;;;6.43;;
11414;SDS011;5763;42.714;23.244;2024-01-15T08:30:46;7.97;;;6.13;;
11414;SDS011;5763;42.714;23.244;2024-01-15T08:33:13;8.77;;;7.53;;
11414;SDS011;5763;42.714;23.244;2024-01-15T08:35:40;10.55;;;7.00;;
11414;SDS011;5763;42.714;23.244;2024-01-15T08:38:07;13.10;;;8.32;;
11414;SDS011;5763;42.714;23.244;2024-01-15T08:40:35;10.40;;;8.05;;
11414;SDS011;5763;42.714;23.244;2024-01-15T08:43:03;14.13;;;7.93;;
11414;SDS011;5763;42.714;23.244;2024-01-15T08:45:32;10.23;;;7.47;;
11414;SDS011;5763;42.714;23.244;2024-01-15T08:48:01;10.98;;;7.38;;
11414;SDS011;5763;42.714;23.244;2024-01-15T08:50:36;9.98;;;7.47;;
11414;SDS011;5763;42.714;23.244;2024-01-15T08:53:03;11.00;;;8.50;;
11414;SDS011;5763;42.714;23.244;2024-01-15T08:55:31;13.02;;;8.13;;
11414;SDS011;5763;42.714;23.244;2024-01-15T08:57:58;11.13;;;8.32;;
11414;SDS011;5763;42.714;23.244;2024-01-15T09:00:28;16.73;;;6.32;;
11414;SDS011;5763;42.714;23.244;2024-01-15T09:02:55;13.23;;;7.32;;
11414;SDS011;5763;42.714;23.244;2024-01-15T09:05:23;16.25;;;8.77;;
11414;SDS011;5763;42.714;23.244;2024-01-15T09:07:50;12.90;;;8.05;;
11414;SDS011;5763;42.714;23.244;2024-01-15T09:10:18;11.63;;;8.20;;
11414;SDS011;5763;42.714;23.244;2024-01-15T09:12:46;11.70;;;8.35;;
11414;SDS011;5763;42.714;23.244;2024-01-15T09:15:14;14.63;;;8.30;;
11414;SDS011;5763;42.714;23.244;2024-01-15T09:17:43;9.65;;;7.60;;
11414;SDS011;5763;42.714;23.244;2024-01-15T09:20:11;19.50;;;9.68;;
11414;SDS011;5763;42.714;23.244;2024-01-15T09:22:40;11.57;;;7.20;;
11414;SDS011;5763;42.714;23.244;2024-01-15T09:25:08;11.77;;;8.88;;
11414;SDS011;5763;42.714;23.244;2024-01-15T09:27:35;13.35;;;9.85;;
11414;SDS011;5763;42.714;23.244;2024-01-15T09:30:03;18.15;;;12.02;;
11414;SDS011;5763;42.714;23.244;2024-01-15T09:32:31;18.23;;;12.27;;
11414;SDS011;5763;42.714;23.244;2024-01-15T09:35:01;18.83;;;11.32;;
11414;SDS011;5763;42.714;23.244;2024-01-15T09:37:29;23.30;;;11.90;;
11414;SDS011;5763;42.714;23.244;2024-01-15T09:39:57;21.25;;;13.10;;
11414;SDS011;5763;42.714;23.244;2024-01-15T09:42:24;19.00;;;11.43;;
11414;SDS011;5763;42.714;23.244;2024-01-15T09:44:52;19.27;;;12.82;;
11414;SDS011;5763;42.714;23.244;2024-01-15T09:47:20;18.48;;;12.40;;
11414;SDS011;5763;42.714;23.244;2024-01-15T09:49:50;19.38;;;12.00;;
11414;SDS011;5763;42.714;23.244;2024-01-15T09:52:20;17.98;;;12.65;;
11414;SDS011;5763;42.714;23.244;2024-01-15T09:54:48;20.63;;;13.65;;
11414;SDS011;5763;42.714;23.244;2024-01-15T09:57:23;20.95;;;12.52;;
11414;SDS011;5763;42.714;23.244;2024-01-15T09:59:52;17.45;;;12.95;;
11414;SDS011;5763;42.714;23.244;2024-01-15T10:02:21;17.67;;;12.43;;
11414;SDS011;5763;42.714;23.244;2024-01-15T10:04:49;19.17;;;11.98;;
11414;SDS011;5763;42.714;23.244;2024-01-15T10:07:17;19.02;;;11.43;;
11414;SDS011;5763;42.714;23.244;2024-01-15T10:09:49;17.77;;;12.00;;
11414;SDS011;5763;42.714;23.244;2024-01-15T10:12:17;16.23;;;10.77;;
11414;SDS011;5763;42.714;23.244;2024-01-15T10:14:44;16.25;;;9.90;;
11414;SDS011;5763;42.714;23.244;2024-01-15T10:17:12;15.13;;;10.27;;
11414;SDS011;5763;42.714;23.244;2024-01-15T10:19:40;19.20;;;10.70;;
11414;SDS011;5763;42.714;23.244;2024-01-15T10:22:08;16.33;;;9.75;;
11414;SDS011;5763;42.714;23.244;2024-01-15T10:24:36;12.50;;;8.10;;
11414;SDS011;5763;42.714;23.244;2024-01-15T10:27:08;13.23;;;9.32;;
11414;SDS011;5763;42.714;23.244;2024-01-15T10:29:36;12.55;;;7.18;;
11414;SDS011;5763;42.714;23.244;2024-01-15T10:32:06;12.77;;;7.80;;
11414;SDS011;5763;42.714;23.244;2024-01-15T10:34:36;9.57;;;5.85;;
11414;SDS011;5763;42.714;23.244;2024-01-15T10:37:06;10.73;;;7.72;;
11414;SDS011;5763;42.714;23.244;2024-01-15T10:39:34;9.68;;;6.03;;
11414;SDS011;5763;42.714;23.244;2024-01-15T10:42:03;13.25;;;6.53;;
11414;SDS011;5763;42.714;23.244;2024-01-15T10:44:33;8.15;;;6.15;;
11414;SDS011;5763;42.714;23.244;2024-01-15T10:47:00;12.75;;;7.40;;
11414;SDS011;5763;42.714;23.244;2024-01-15T10:49:28;9.85;;;6.35;;
11414;SDS011;5763;42.714;23.244;2024-01-15T10:51:55;8.50;;;6.80;;
11414;SDS011;5763;42.714;23.244;2024-01-15T10:54:23;7.72;;;6.10;;
11414;SDS011;5763;42.714;23.244;2024-01-15T10:56:51;9.13;;;6.60;;
11414;SDS011;5763;42.714;23.244;2024-01-15T10:59:19;14.77;;;7.40;;
11414;SDS011;5763;42.714;23.244;2024-01-15T11:01:49;11.13;;;6.82;;
11414;SDS011;5763;42.714;23.244;2024-01-15T11:04:19;13.93;;;6.97;;
11414;SDS011;5763;42.714;23.244;2024-01-15T11:06:49;6.97;;;5.90;;
11414;SDS011;5763;42.714;23.244;2024-01-15T11:09:17;8.63;;;5.50;;
11414;SDS011;5763;42.714;23.244;2024-01-15T11:11:45;9.20;;;6.18;;
11414;SDS011;5763;42.714;23.244;2024-01-15T11:17:02;6.70;;;4.68;;
11414;SDS011;5763;42.714;23.244;2024-01-15T11:19:42;5.38;;;3.95;;
11414;SDS011;5763;42.714;23.244;2024-01-15T11:22:10;5.75;;;5.15;;
11414;SDS011;5763;42.714;23.244;2024-01-15T11:25:01;9.00;;;5.10;;
11414;SDS011;5763;42.714;23.244;2024-01-15T11:27:39;7.97;;;5.07;;
11414;SDS011;5763;42.714;23.244;2024-01-15T11:30:08;7.28;;;5.28;;
11414;SDS011;5763;42.714;23.244;2024-01-15T11:32:38;12.05;;;5.78;;
11414;SDS011;5763;42.714;23.244;2024-01-15T11:35:06;12.52;;;5.53;;
11414;SDS011;5763;42.714;23.244;2024-01-15T11:43:08;7.60;;;4.22;;
11414;SDS011;5763;42.714;23.244;2024-01-15T11:45:38;7.15;;;4.22;;
11414;SDS011;5763;42.714;23.244;2024-01-15T11:48:12;10.63;;;4.35;;
11414;SDS011;5763;42.714;23.244;2024-01-15T11:50:40;4.40;;;3.55;;
11414;SDS011;5763;42.714;23.244;2024-01-15T11:53:14;8.05;;;4.70;;
11414;SDS011;5763;42.714;23.244;2024-01-15T11:55:44;7.38;;;4.53;;
11414;SDS011;5763;42.714;23.244;2024-01-15T11:58:14;7.50;;;3.75;;
11414;SDS011;5763;42.714;23.244;2024-01-15T12:00:43;6.35;;;3.92;;
11414;SDS011;5763;42.714;23.244;2024-01-15T12:03:13;5.38;;;4.03;;
11414;SDS011;5763;42.714;23.244;2024-01-15T12:05:40;8.43;;;4.45;;
11414;SDS011;5763;42.714;23.244;2024-01-15T12:08:08;6.80;;;4.15;;
11414;SDS011;5763;42.714;23.244;2024-01-15T12:10:37;9.85;;;4.60;;
11414;SDS011;5763;42.714;23.244;2024-01-15T12:13:07;6.53;;;4.57;;
11414;SDS011;5763;42.714;23.244;2024-01-15T12:15:38;9.30;;;4.75;;
11414;SDS011;5763;42.714;23.244;2024-01-15T12:18:07;6.15;;;4.22;;
11414;SDS011;5763;42.714;23.244;2024-01-15T12:20:37;5.50;;;4.07;;
11414;SDS011;5763;42.714;23.244;2024-01-15T12:23:04;8.20;;;3.85;;
11414;SDS011;5763;42.714;23.244;2024-01-15T12:25:32;7.28;;;3.53;;
11414;SDS011;5763;42.714;23.244;2024-01-15T12:28:00;5.10;;;3.75;;
11414;SDS011;5763;42.714;23.244;2024-01-15T12:30:29;4.72;;;3.60;;
11414;SDS011;5763;42.714;23.244;2024-01-15T12:32:58;7.53;;;3.95;;
11414;SDS011;5763;42.714;23.244;2024-01-15T12:35:28;4.90;;;3.30;;
11414;SDS011;5763;42.714;23.244;2024-01-15T12:37:59;5.13;;;4.13;;
11414;SDS011;5763;42.714;23.244;2024-01-15T12:40:27;6.05;;;3.50;;
11414;SDS011;5763;42.714;23.244;2024-01-15T12:42:55;6.93;;;4.43;;
11414;SDS011;5763;42.714;23.244;2024-01-15T12:45:23;3.75;;;3.22;;
11414;SDS011;5763;42.714;23.244;2024-01-15T12:47:51;8.77;;;3.85;;
11414;SDS011;5763;42.714;23.244;2024-01-15T12:50:19;5.85;;;4.03;;
11414;SDS011;5763;42.714;23.244;2024-01-15T12:52:50;6.78;;;4.40;;
11414;SDS011;5763;42.714;23.244;2024-01-15T12:55:19;4.90;;;3.85;;
11414;SDS011;5763;42.714;23.244;2024-01-15T12:57:46;4.13;;;3.72;;
11414;SDS011;5763;42.714;23.244;2024-01-15T13:00:15;6.20;;;3.05;;
11414;SDS011;5763;42.714;23.244;2024-01-15T13:02:42;6.05;;;3.50;;
11414;SDS011;5763;42.714;23.244;2024-01-15T13:05:10;6.85;;;4.22;;
11414;SDS011;5763;42.714;23.244;2024-01-15T13:07:38;6.07;;;3.85;;
11414;SDS011;5763;42.714;23.244;2024-01-15T13:10:06;8.57;;;4.68;;
11414;SDS011;5763;42.714;23.244;2024-01-15T13:12:36;9.82;;;4.72;;
11414;SDS011;5763;42.714;23.244;2024-01-15T13:15:05;3.85;;;3.08;;
11414;SDS011;5763;42.714;23.244;2024-01-15T13:17:36;5.45;;;3.50;;
11414;SDS011;5763;42.714;23.244;2024-01-15T13:20:05;5.45;;;2.75;;
11414;SDS011;5763;42.714;23.244;2024-01-15T13:22:33;8.18;;;4.93;;
11414;SDS011;5763;42.714;23.244;2024-01-15T13:25:01;5.60;;;3.55;;
11414;SDS011;5763;42.714;23.244;2024-01-15T13:27:32;3.70;;;2.85;;
11414;SDS011;5763;42.714;23.244;2024-01-15T13:30:02;4.97;;;3.15;;
11414;SDS011;5763;42.714;23.244;2024-01-15T13:32:29;6.40;;;4.07;;
11414;SDS011;5763;42.714;23.244;2024-01-15T13:34:57;6.97;;;3.35;;
11414;SDS011;5763;42.714;23.244;2024-01-15T13:37:24;3.38;;;2.78;;
11414;SDS011;5763;42.714;23.244;2024-01-15T13:39:52;7.95;;;5.32;;
11414;SDS011;5763;42.714;23.244;2024-01-15T13:42:20;5.05;;;3.15;;
11414;SDS011;5763;42.714;23.244;2024-01-15T13:44:48;3.58;;;2.97;;
11414;SDS011;5763;42.714;23.244;2024-01-15T13:47:17;7.00;;;3.85;;
11414;SDS011;5763;42.714;23.244;2024-01-15T13:49:45;7.38;;;3.28;;
11414;SDS011;5763;42.714;23.244;2024-01-15T13:52:12;8.32;;;3.83;;
11414;SDS011;5763;42.714;23.244;2024-01-15T13:54:40;5.72;;;3.17;;
11414;SDS011;5763;42.714;23.244;2024-01-15T13:57:07;5.10;;;2.83;;
11414;SDS011;5763;42.714;23.244;2024-01-15T13:59:35;4.05;;;3.35;;
11414;SDS011;5763;42.714;23.244;2024-01-15T14:02:02;5.63;;;3.78;;
11414;SDS011;5763;42.714;23.244;2024-01-15T14:04:32;9.10;;;4.95;;
11414;SDS011;5763;42.714;23.244;2024-01-15T14:06:59;6.45;;;4.25;;
11414;SDS011;5763;42.714;23.244;2024-01-15T14:09:26;4.93;;;3.88;;
11414;SDS011;5763;42.714;23.244;2024-01-15T14:11:54;4.88;;;3.42;;
11414;SDS011;5763;42.714;23.244;2024-01-15T14:14:24;3.45;;;2.50;;
11414;SDS011;5763;42.714;23.244;2024-01-15T14:16:53;4.20;;;3.50;;
11414;SDS011;5763;42.714;23.244;2024-01-15T14:19:21;7.90;;;4.25;;
11414;SDS011;5763;42.714;23.244;2024-01-15T14:21:50;5.05;;;3.75;;
11414;SDS011;5763;42.714;23.244;2024-01-15T14:24:17;5.45;;;3.25;;
11414;SDS011;5763;42.714;23.244;2024-01-15T14:26:44;5.28;;;3.28;;
11414;SDS011;5763;42.714;23.244;2024-01-15T14:29:12;3.63;;;3.13;;
11414;SDS011;5763;42.714;23.244;2024-01-15T14:31:39;5.90;;;3.35;;
11414;SDS011;5763;42.714;23.244;2024-01-15T14:34:07;5.53;;;3.78;;
11414;SDS011;5763;42.714;23.244;2024-01-15T14:36:34;4.95;;;3.95;;
11414;SDS011;5763;42.714;23.244;2024-01-15T14:39:03;7.57;;;3.92;;
11414;SDS011;5763;42.714;23.244;2024-01-15T14:41:30;5.97;;;3.47;;
11414;SDS011;5763;42.714;23.244;2024-01-15T14:43:58;5.22;;;3.30;;
11414;SDS011;5763;42.714;23.244;2024-01-15T14:46:26;4.20;;;2.58;;
11414;SDS011;5763;42.714;23.244;2024-01-15T14:48:55;5.35;;;3.60;;
11414;SDS011;5763;42.714;23.244;2024-01-15T14:51:22;8.02;;;3.38;;
11414;SDS011;5763;42.714;23.244;2024-01-15T14:53:50;4.13;;;3.67;;
11414;SDS011;5763;42.714;23.244;2024-01-15T14:56:18;3.95;;;3.20;;
11414;SDS011;5763;42.714;23.244;2024-01-15T14:58:47;7.05;;;3.83;;